sensor_id;sensor_type;location;lat;lon;timestamp;temperature;humidity
21302;DHT22;10810;48.270;9.996;2022-09-27T00:02:06;13.80;97.60
21302;DHT22;10810;48.270;9.996;2022-09-27T00:04:50;13.80;97.50
21302;DHT22;10810;48.270;9.996;2022-09-27T00:07:35;13.80;97.80
21302;DHT22;10810;48.270;9.996;2022-09-27T00:10:07;13.80;97.80
21302;DHT22;10810;48.270;9.996;2022-09-27T00:12:39;13.10;97.60
21302;DHT22;10810;48.270;9.996;2022-09-27T00:15:14;13.80;97.90
21302;DHT22;10810;48.270;9.996;2022-09-27T00:17:52;13.80;97.90
21302;DHT22;10810;48.270;9.996;2022-09-27T00:20:39;13.80;97.90
21302;DHT22;10810;48.270;9.996;2022-09-27T00:23:24;13.80;97.80
21302;DHT22;10810;48.270;9.996;2022-09-27T00:25:58;13.70;98.10
21302;DHT22;10810;48.270;9.996;2022-09-27T00:28:44;13.70;98.00
21302;DHT22;10810;48.270;9.996;2022-09-27T00:31:34;13.70;98.00
21302;DHT22;10810;48.270;9.996;2022-09-27T00:34:25;13.70;98.40
21302;DHT22;10810;48.270;9.996;2022-09-27T00:37:08;13.50;98.30
21302;DHT22;10810;48.270;9.996;2022-09-27T00:40:08;13.70;98.40
21302;DHT22;10810;48.270;9.996;2022-09-27T00:43:07;13.70;98.40
21302;DHT22;10810;48.270;9.996;2022-09-27T00:46:03;13.60;98.60
21302;DHT22;10810;48.270;9.996;2022-09-27T00:48:37;13.60;98.40
21302;DHT22;10810;48.270;9.996;2022-09-27T00:51:15;13.60;98.70
21302;DHT22;10810;48.270;9.996;2022-09-27T00:54:12;13.60;98.40
21302;DHT22;10810;48.270;9.996;2022-09-27T00:58:51;13.60;98.80
21302;DHT22;10810;48.270;9.996;2022-09-27T00:59:50;13.60;98.90
21302;DHT22;10810;48.270;9.996;2022-09-27T01:02:51;13.60;98.60
21302;DHT22;10810;48.270;9.996;2022-09-27T01:05:29;13.60;98.80
21302;DHT22;10810;48.270;9.996;2022-09-27T01:08:04;13.60;98.90
21302;DHT22;10810;48.270;9.996;2022-09-27T01:14:27;13.50;98.60
21302;DHT22;10810;48.270;9.996;2022-09-27T01:17:21;13.50;98.70
21302;DHT22;10810;48.270;9.996;2022-09-27T01:21:00;13.50;98.70
21302;DHT22;10810;48.270;9.996;2022-09-27T01:30:33;13.50;98.70
21302;DHT22;10810;48.270;9.996;2022-09-27T01:33:42;13.50;98.80
21302;DHT22;10810;48.270;9.996;2022-09-27T01:36:46;13.50;98.80
21302;DHT22;10810;48.270;9.996;2022-09-27T01:39:42;13.80;98.90
21302;DHT22;10810;48.270;9.996;2022-09-27T01:42:33;13.10;98.80
21302;DHT22;10810;48.270;9.996;2022-09-27T01:45:44;13.50;99.30
21302;DHT22;10810;48.270;9.996;2022-09-27T01:48:27;13.40;99.00
21302;DHT22;10810;48.270;9.996;2022-09-27T01:51:29;13.50;99.40
21302;DHT22;10810;48.270;9.996;2022-09-27T01:54:08;13.40;99.30
21302;DHT22;10810;48.270;9.996;2022-09-27T01:57:15;13.40;99.30
21302;DHT22;10810;48.270;9.996;2022-09-27T01:59:48;13.40;99.10
21302;DHT22;10810;48.270;9.996;2022-09-27T02:06:00;13.40;99.20
21302;DHT22;10810;48.270;9.996;2022-09-27T02:08:42;13.40;99.60
21302;DHT22;10810;48.270;9.996;2022-09-27T02:11:28;13.20;99.50
21302;DHT22;10810;48.270;9.996;2022-09-27T02:14:16;13.40;99.70
21302;DHT22;10810;48.270;9.996;2022-09-27T02:17:24;13.40;99.20
21302;DHT22;10810;48.270;9.996;2022-09-27T02:20:48;13.30;99.20
21302;DHT22;10810;48.270;9.996;2022-09-27T02:26:45;13.30;99.30
21302;DHT22;10810;48.270;9.996;2022-09-27T02:30:40;13.30;99.40
21302;DHT22;10810;48.270;9.996;2022-09-27T02:32:30;13.30;99.70
21302;DHT22;10810;48.270;9.996;2022-09-27T02:35:30;12.60;99.40
21302;DHT22;10810;48.270;9.996;2022-09-27T02:38:38;13.30;99.80
21302;DHT22;10810;48.270;9.996;2022-09-27T02:41:33;13.30;99.70
21302;DHT22;10810;48.270;9.996;2022-09-27T02:44:18;13.30;99.50
21302;DHT22;10810;48.270;9.996;2022-09-27T02:47:54;13.30;99.70
21302;DHT22;10810;48.270;9.996;2022-09-27T02:51:36;13.30;99.50
21302;DHT22;10810;48.270;9.996;2022-09-27T02:54:38;13.30;99.50
21302;DHT22;10810;48.270;9.996;2022-09-27T02:57:32;13.30;99.60
21302;DHT22;10810;48.270;9.996;2022-09-27T03:00:34;13.30;99.60
21302;DHT22;10810;48.270;9.996;2022-09-27T03:06:48;13.30;99.60
21302;DHT22;10810;48.270;9.996;2022-09-27T03:12:46;13.30;99.70
21302;DHT22;10810;48.270;9.996;2022-09-27T03:15:22;12.80;99.90
21302;DHT22;10810;48.270;9.996;2022-09-27T03:18:16;13.20;99.90
21302;DHT22;10810;48.270;9.996;2022-09-27T03:20:55;13.20;99.90
21302;DHT22;10810;48.270;9.996;2022-09-27T03:24:05;13.20;99.90
21302;DHT22;10810;48.270;9.996;2022-09-27T03:26:57;13.20;99.80
21302;DHT22;10810;48.270;9.996;2022-09-27T03:30:11;13.30;99.90
21302;DHT22;10810;48.270;9.996;2022-09-27T03:32:58;12.70;99.90
21302;DHT22;10810;48.270;9.996;2022-09-27T03:35:31;12.80;99.90
21302;DHT22;10810;48.270;9.996;2022-09-27T03:38:29;13.20;99.90
21302;DHT22;10810;48.270;9.996;2022-09-27T03:41:23;13.20;99.90
21302;DHT22;10810;48.270;9.996;2022-09-27T03:44:29;13.60;99.80
21302;DHT22;10810;48.270;9.996;2022-09-27T03:47:08;13.20;99.80
21302;DHT22;10810;48.270;9.996;2022-09-27T03:50:43;13.20;99.90
21302;DHT22;10810;48.270;9.996;2022-09-27T03:52:33;13.50;99.70
21302;DHT22;10810;48.270;9.996;2022-09-27T03:55:04;13.20;99.90
21302;DHT22;10810;48.270;9.996;2022-09-27T03:57:37;13.20;99.90
21302;DHT22;10810;48.270;9.996;2022-09-27T04:00:18;13.20;99.90
21302;DHT22;10810;48.270;9.996;2022-09-27T04:02:49;13.20;99.90
21302;DHT22;10810;48.270;9.996;2022-09-27T04:05:38;13.20;99.90
21302;DHT22;10810;48.270;9.996;2022-09-27T04:08:25;13.20;99.90
21302;DHT22;10810;48.270;9.996;2022-09-27T04:11:05;13.20;99.90
21302;DHT22;10810;48.270;9.996;2022-09-27T04:13:58;13.20;99.90
21302;DHT22;10810;48.270;9.996;2022-09-27T04:16:35;13.20;99.90
21302;DHT22;10810;48.270;9.996;2022-09-27T04:19:05;13.20;99.80
21302;DHT22;10810;48.270;9.996;2022-09-27T04:22:45;13.20;99.80
21302;DHT22;10810;48.270;9.996;2022-09-27T04:25:09;13.20;99.90
21302;DHT22;10810;48.270;9.996;2022-09-27T04:31:04;13.00;99.40
21302;DHT22;10810;48.270;9.996;2022-09-27T04:52:14;13.20;99.00
21302;DHT22;10810;48.270;9.996;2022-09-27T04:55:22;13.20;99.10
21302;DHT22;10810;48.270;9.996;2022-09-27T04:58:18;13.20;99.30
21302;DHT22;10810;48.270;9.996;2022-09-27T05:14:16;13.20;98.90
21302;DHT22;10810;48.270;9.996;2022-09-27T05:41:54;13.10;98.60
21302;DHT22;10810;48.270;9.996;2022-09-27T05:44:41;13.10;98.70
21302;DHT22;10810;48.270;9.996;2022-09-27T05:47:17;13.00;99.00
21302;DHT22;10810;48.270;9.996;2022-09-27T05:50:13;13.00;98.80
21302;DHT22;10810;48.270;9.996;2022-09-27T05:52:44;12.40;98.70
21302;DHT22;10810;48.270;9.996;2022-09-27T05:55:18;13.00;98.80
21302;DHT22;10810;48.270;9.996;2022-09-27T05:58:10;13.00;98.80
21302;DHT22;10810;48.270;9.996;2022-09-27T06:00:41;13.00;98.90
21302;DHT22;10810;48.270;9.996;2022-09-27T06:03:19;13.00;98.80
21302;DHT22;10810;48.270;9.996;2022-09-27T06:05:53;13.00;98.80
21302;DHT22;10810;48.270;9.996;2022-09-27T06:08:29;13.00;99.40
21302;DHT22;10810;48.270;9.996;2022-09-27T06:11:12;13.10;99.10
21302;DHT22;10810;48.270;9.996;2022-09-27T06:13:43;13.00;98.90
21302;DHT22;10810;48.270;9.996;2022-09-27T06:16:14;13.00;98.80
21302;DHT22;10810;48.270;9.996;2022-09-27T06:18:52;13.00;98.90
21302;DHT22;10810;48.270;9.996;2022-09-27T06:21:37;13.00;98.80
21302;DHT22;10810;48.270;9.996;2022-09-27T06:24:14;12.90;98.80
21302;DHT22;10810;48.270;9.996;2022-09-27T06:26:45;13.00;98.70
21302;DHT22;10810;48.270;9.996;2022-09-27T06:29:23;12.90;98.60
21302;DHT22;10810;48.270;9.996;2022-09-27T06:31:55;12.90;98.70
21302;DHT22;10810;48.270;9.996;2022-09-27T06:34:29;12.90;98.60
21302;DHT22;10810;48.270;9.996;2022-09-27T06:37:11;12.90;98.70
21302;DHT22;10810;48.270;9.996;2022-09-27T06:39:45;12.90;98.70
21302;DHT22;10810;48.270;9.996;2022-09-27T06:42:15;12.90;98.50
21302;DHT22;10810;48.270;9.996;2022-09-27T06:44:47;12.90;98.70
21302;DHT22;10810;48.270;9.996;2022-09-27T06:47:16;12.90;98.70
21302;DHT22;10810;48.270;9.996;2022-09-27T06:49:46;12.90;98.80
21302;DHT22;10810;48.270;9.996;2022-09-27T06:52:16;12.90;98.60
21302;DHT22;10810;48.270;9.996;2022-09-27T06:54:54;12.90;98.50
21302;DHT22;10810;48.270;9.996;2022-09-27T06:57:24;12.90;98.50
21302;DHT22;10810;48.270;9.996;2022-09-27T07:00:21;12.90;98.60
21302;DHT22;10810;48.270;9.996;2022-09-27T07:02:53;12.90;98.10
21302;DHT22;10810;48.270;9.996;2022-09-27T07:05:27;12.80;98.30
21302;DHT22;10810;48.270;9.996;2022-09-27T07:07:58;12.80;98.50
21302;DHT22;10810;48.270;9.996;2022-09-27T07:10:32;12.80;98.20
21302;DHT22;10810;48.270;9.996;2022-09-27T07:13:03;12.80;98.60
21302;DHT22;10810;48.270;9.996;2022-09-27T07:15:37;12.80;98.40
21302;DHT22;10810;48.270;9.996;2022-09-27T07:18:10;12.80;98.40
21302;DHT22;10810;48.270;9.996;2022-09-27T07:20:37;12.80;98.70
21302;DHT22;10810;48.270;9.996;2022-09-27T07:23:06;12.80;98.40
21302;DHT22;10810;48.270;9.996;2022-09-27T07:25:41;12.80;98.60
21302;DHT22;10810;48.270;9.996;2022-09-27T07:28:18;12.80;98.70
21302;DHT22;10810;48.270;9.996;2022-09-27T07:30:47;12.80;98.30
21302;DHT22;10810;48.270;9.996;2022-09-27T07:33:14;12.80;98.70
21302;DHT22;10810;48.270;9.996;2022-09-27T07:35:43;12.80;98.60
21302;DHT22;10810;48.270;9.996;2022-09-27T07:38:13;12.80;98.80
21302;DHT22;10810;48.270;9.996;2022-09-27T07:40:41;12.80;98.90
21302;DHT22;10810;48.270;9.996;2022-09-27T07:43:14;12.80;98.70
21302;DHT22;10810;48.270;9.996;2022-09-27T07:46:08;12.80;98.60
21302;DHT22;10810;48.270;9.996;2022-09-27T07:49:27;12.80;98.60
21302;DHT22;10810;48.270;9.996;2022-09-27T07:52:22;12.80;98.60
21302;DHT22;10810;48.270;9.996;2022-09-27T07:55:37;12.80;98.70
21302;DHT22;10810;48.270;9.996;2022-09-27T07:58:13;12.80;98.90
21302;DHT22;10810;48.270;9.996;2022-09-27T08:01:27;13.00;99.00
21302;DHT22;10810;48.270;9.996;2022-09-27T08:04:29;12.80;98.60
21302;DHT22;10810;48.270;9.996;2022-09-27T08:10:49;12.80;98.60
21302;DHT22;10810;48.270;9.996;2022-09-27T08:30:15;13.30;99.10
21302;DHT22;10810;48.270;9.996;2022-09-27T08:33:14;12.90;99.00
21302;DHT22;10810;48.270;9.996;2022-09-27T08:52:45;12.90;98.60
21302;DHT22;10810;48.270;9.996;2022-09-27T08:55:21;12.90;98.80
21302;DHT22;10810;48.270;9.996;2022-09-27T08:59:11;13.00;98.50
21302;DHT22;10810;48.270;9.996;2022-09-27T09:01:25;12.90;98.50
21302;DHT22;10810;48.270;9.996;2022-09-27T09:03:58;12.90;98.80
21302;DHT22;10810;48.270;9.996;2022-09-27T09:06:52;12.90;99.00
21302;DHT22;10810;48.270;9.996;2022-09-27T09:09:32;12.90;98.80
21302;DHT22;10810;48.270;9.996;2022-09-27T09:12:12;12.90;98.50
21302;DHT22;10810;48.270;9.996;2022-09-27T09:15:07;12.80;98.40
21302;DHT22;10810;48.270;9.996;2022-09-27T09:18:17;12.90;98.40
21302;DHT22;10810;48.270;9.996;2022-09-27T09:20:54;12.90;98.40
21302;DHT22;10810;48.270;9.996;2022-09-27T09:23:41;12.80;98.30
21302;DHT22;10810;48.270;9.996;2022-09-27T09:26:26;12.80;98.20
21302;DHT22;10810;48.270;9.996;2022-09-27T09:29:06;12.80;98.20
21302;DHT22;10810;48.270;9.996;2022-09-27T09:31:41;12.80;98.10
21302;DHT22;10810;48.270;9.996;2022-09-27T09:34:16;12.80;98.30
21302;DHT22;10810;48.270;9.996;2022-09-27T09:36:51;12.80;98.00
21302;DHT22;10810;48.270;9.996;2022-09-27T09:39:38;12.80;98.20
21302;DHT22;10810;48.270;9.996;2022-09-27T09:42:23;12.80;98.00
21302;DHT22;10810;48.270;9.996;2022-09-27T09:44:58;12.80;98.20
21302;DHT22;10810;48.270;9.996;2022-09-27T09:47:32;12.80;97.80
21302;DHT22;10810;48.270;9.996;2022-09-27T09:50:14;12.80;97.70
21302;DHT22;10810;48.270;9.996;2022-09-27T09:52:48;12.70;97.50
21302;DHT22;10810;48.270;9.996;2022-09-27T09:55:54;12.70;97.60
21302;DHT22;10810;48.270;9.996;2022-09-27T09:58:27;12.70;97.70
21302;DHT22;10810;48.270;9.996;2022-09-27T10:00:59;11.90;96.90
21302;DHT22;10810;48.270;9.996;2022-09-27T10:03:54;12.70;97.00
21302;DHT22;10810;48.270;9.996;2022-09-27T10:09:42;12.70;97.60
21302;DHT22;10810;48.270;9.996;2022-09-27T10:12:12;12.70;97.60
21302;DHT22;10810;48.270;9.996;2022-09-27T10:14:52;12.70;97.60
21302;DHT22;10810;48.270;9.996;2022-09-27T10:17:42;12.70;97.70
21302;DHT22;10810;48.270;9.996;2022-09-27T10:20:27;12.70;97.50
21302;DHT22;10810;48.270;9.996;2022-09-27T10:23:12;12.70;97.50
21302;DHT22;10810;48.270;9.996;2022-09-27T10:26:01;12.70;98.00
21302;DHT22;10810;48.270;9.996;2022-09-27T10:28:55;12.60;97.70
21302;DHT22;10810;48.270;9.996;2022-09-27T10:31:34;12.60;98.10
21302;DHT22;10810;48.270;9.996;2022-09-27T10:34:20;12.70;98.30
21302;DHT22;10810;48.270;9.996;2022-09-27T10:37:17;12.70;98.00
21302;DHT22;10810;48.270;9.996;2022-09-27T10:40:24;12.70;98.10
21302;DHT22;10810;48.270;9.996;2022-09-27T10:43:30;12.70;98.10
21302;DHT22;10810;48.270;9.996;2022-09-27T10:46:08;12.70;98.60
21302;DHT22;10810;48.270;9.996;2022-09-27T10:49:07;12.70;98.20
21302;DHT22;10810;48.270;9.996;2022-09-27T10:51:37;12.70;98.40
21302;DHT22;10810;48.270;9.996;2022-09-27T10:59:33;12.70;98.30
21302;DHT22;10810;48.270;9.996;2022-09-27T11:01:37;12.70;98.80
21302;DHT22;10810;48.270;9.996;2022-09-27T11:04:29;12.70;98.80
21302;DHT22;10810;48.270;9.996;2022-09-27T11:07:16;12.70;98.50
21302;DHT22;10810;48.270;9.996;2022-09-27T11:09:50;12.80;98.50
21302;DHT22;10810;48.270;9.996;2022-09-27T11:13:34;12.80;98.90
21302;DHT22;10810;48.270;9.996;2022-09-27T11:16:24;12.80;98.60
21302;DHT22;10810;48.270;9.996;2022-09-27T11:19:05;12.80;98.60
21302;DHT22;10810;48.270;9.996;2022-09-27T11:21:51;12.80;98.60
21302;DHT22;10810;48.270;9.996;2022-09-27T11:25:24;12.80;98.70
21302;DHT22;10810;48.270;9.996;2022-09-27T11:29:13;12.40;98.50
21302;DHT22;10810;48.270;9.996;2022-09-27T12:44:56;13.20;97.20
21302;DHT22;10810;48.270;9.996;2022-09-27T12:47:55;13.30;97.60
21302;DHT22;10810;48.270;9.996;2022-09-27T12:57:12;13.20;97.00
21302;DHT22;10810;48.270;9.996;2022-09-27T13:00:13;13.20;97.00
21302;DHT22;10810;48.270;9.996;2022-09-27T13:03:20;13.20;97.10
21302;DHT22;10810;48.270;9.996;2022-09-27T13:10:06;13.20;97.10
21302;DHT22;10810;48.270;9.996;2022-09-27T13:19:15;13.20;97.30
21302;DHT22;10810;48.270;9.996;2022-09-27T13:25:13;13.20;97.30
21302;DHT22;10810;48.270;9.996;2022-09-27T13:27:48;13.20;97.70
21302;DHT22;10810;48.270;9.996;2022-09-27T13:48:05;13.20;97.10
21302;DHT22;10810;48.270;9.996;2022-09-27T13:50:46;13.20;97.30
21302;DHT22;10810;48.270;9.996;2022-09-27T13:53:54;13.20;97.30
21302;DHT22;10810;48.270;9.996;2022-09-27T13:57:43;13.20;97.30
21302;DHT22;10810;48.270;9.996;2022-09-27T14:00:07;13.20;97.40
21302;DHT22;10810;48.270;9.996;2022-09-27T14:12:43;13.20;97.20
21302;DHT22;10810;48.270;9.996;2022-09-27T14:19:20;13.40;98.00
21302;DHT22;10810;48.270;9.996;2022-09-27T14:21:36;13.10;97.70
21302;DHT22;10810;48.270;9.996;2022-09-27T14:24:28;13.10;98.20
21302;DHT22;10810;48.270;9.996;2022-09-27T14:27:12;13.10;97.80
21302;DHT22;10810;48.270;9.996;2022-09-27T14:29:53;13.10;98.20
21302;DHT22;10810;48.270;9.996;2022-09-27T14:32:23;13.10;98.40
21302;DHT22;10810;48.270;9.996;2022-09-27T14:35:35;13.10;98.20
21302;DHT22;10810;48.270;9.996;2022-09-27T14:38:32;13.10;98.10
21302;DHT22;10810;48.270;9.996;2022-09-27T14:41:14;13.10;98.30
21302;DHT22;10810;48.270;9.996;2022-09-27T14:44:02;13.20;98.50
21302;DHT22;10810;48.270;9.996;2022-09-27T14:46:32;13.20;98.50
21302;DHT22;10810;48.270;9.996;2022-09-27T14:49:59;13.20;98.30
21302;DHT22;10810;48.270;9.996;2022-09-27T14:52:16;13.10;98.60
21302;DHT22;10810;48.270;9.996;2022-09-27T14:55:07;13.10;98.20
21302;DHT22;10810;48.270;9.996;2022-09-27T14:57:50;13.10;98.90
21302;DHT22;10810;48.270;9.996;2022-09-27T15:00:21;13.10;98.80
21302;DHT22;10810;48.270;9.996;2022-09-27T15:02:52;13.30;98.40
21302;DHT22;10810;48.270;9.996;2022-09-27T15:05:27;13.20;98.60
21302;DHT22;10810;48.270;9.996;2022-09-27T15:08:03;13.20;98.80
21302;DHT22;10810;48.270;9.996;2022-09-27T15:10:33;13.10;98.60
21302;DHT22;10810;48.270;9.996;2022-09-27T15:13:06;13.10;98.40
21302;DHT22;10810;48.270;9.996;2022-09-27T15:15:37;12.90;98.60
21302;DHT22;10810;48.270;9.996;2022-09-27T15:18:31;13.20;98.80
21302;DHT22;10810;48.270;9.996;2022-09-27T15:21:06;13.20;98.50
21302;DHT22;10810;48.270;9.996;2022-09-27T15:23:37;13.20;98.90
21302;DHT22;10810;48.270;9.996;2022-09-27T15:26:14;13.20;98.60
21302;DHT22;10810;48.270;9.996;2022-09-27T15:28:45;13.20;98.80
21302;DHT22;10810;48.270;9.996;2022-09-27T15:31:14;13.20;98.90
21302;DHT22;10810;48.270;9.996;2022-09-27T15:33:54;13.20;99.00
21302;DHT22;10810;48.270;9.996;2022-09-27T15:36:50;13.20;98.90
21302;DHT22;10810;48.270;9.996;2022-09-27T15:39:34;13.20;98.50
21302;DHT22;10810;48.270;9.996;2022-09-27T15:42:09;13.20;98.90
21302;DHT22;10810;48.270;9.996;2022-09-27T15:44:47;13.20;98.50
21302;DHT22;10810;48.270;9.996;2022-09-27T15:47:40;13.20;98.70
21302;DHT22;10810;48.270;9.996;2022-09-27T15:50:34;13.10;98.40
21302;DHT22;10810;48.270;9.996;2022-09-27T15:53:04;13.20;98.40
21302;DHT22;10810;48.270;9.996;2022-09-27T15:55:34;13.10;98.80
21302;DHT22;10810;48.270;9.996;2022-09-27T15:58:10;13.20;98.50
21302;DHT22;10810;48.270;9.996;2022-09-27T16:01:16;13.10;98.50
21302;DHT22;10810;48.270;9.996;2022-09-27T16:03:43;13.10;98.20
21302;DHT22;10810;48.270;9.996;2022-09-27T16:06:14;13.10;98.40
21302;DHT22;10810;48.270;9.996;2022-09-27T16:08:41;13.10;98.50
21302;DHT22;10810;48.270;9.996;2022-09-27T16:11:16;13.10;98.50
21302;DHT22;10810;48.270;9.996;2022-09-27T16:13:45;13.10;98.50
21302;DHT22;10810;48.270;9.996;2022-09-27T16:16:16;13.00;98.50
21302;DHT22;10810;48.270;9.996;2022-09-27T16:18:45;13.10;98.60
21302;DHT22;10810;48.270;9.996;2022-09-27T16:21:21;13.10;98.30
21302;DHT22;10810;48.270;9.996;2022-09-27T16:23:48;13.10;98.50
21302;DHT22;10810;48.270;9.996;2022-09-27T16:26:16;13.00;98.30
21302;DHT22;10810;48.270;9.996;2022-09-27T16:28:46;13.00;98.20
21302;DHT22;10810;48.270;9.996;2022-09-27T16:31:21;13.00;98.50
21302;DHT22;10810;48.270;9.996;2022-09-27T16:34:03;13.00;98.20
21302;DHT22;10810;48.270;9.996;2022-09-27T16:36:47;13.00;98.00
21302;DHT22;10810;48.270;9.996;2022-09-27T16:41:26;12.90;98.40
21302;DHT22;10810;48.270;9.996;2022-09-27T16:43:09;12.60;99.20
21302;DHT22;10810;48.270;9.996;2022-09-27T16:45:52;13.00;99.60
21302;DHT22;10810;48.270;9.996;2022-09-27T17:05:03;13.30;99.90
21302;DHT22;10810;48.270;9.996;2022-09-27T17:13:17;13.40;99.90
21302;DHT22;10810;48.270;9.996;2022-09-27T17:15:04;13.40;99.90
21302;DHT22;10810;48.270;9.996;2022-09-27T17:18:05;13.50;99.90
21302;DHT22;10810;48.270;9.996;2022-09-27T17:25:02;13.60;99.90
21302;DHT22;10810;48.270;9.996;2022-09-27T17:27:30;13.60;99.90
21302;DHT22;10810;48.270;9.996;2022-09-27T17:30:33;13.60;99.90
21302;DHT22;10810;48.270;9.996;2022-09-27T17:33:06;13.70;99.90
21302;DHT22;10810;48.270;9.996;2022-09-27T17:36:04;13.70;99.90
21302;DHT22;10810;48.270;9.996;2022-09-27T17:39:35;13.70;99.90
21302;DHT22;10810;48.270;9.996;2022-09-27T17:42:03;13.70;99.90
21302;DHT22;10810;48.270;9.996;2022-09-27T17:45:30;13.80;99.90
21302;DHT22;10810;48.270;9.996;2022-09-27T17:48:00;13.80;99.90
21302;DHT22;10810;48.270;9.996;2022-09-27T17:54:15;13.80;99.90
21302;DHT22;10810;48.270;9.996;2022-09-27T18:10:05;13.80;99.90
21302;DHT22;10810;48.270;9.996;2022-09-27T18:12:56;13.80;99.90
21302;DHT22;10810;48.270;9.996;2022-09-27T18:15:34;13.80;99.90
21302;DHT22;10810;48.270;9.996;2022-09-27T18:19:40;13.90;99.90
21302;DHT22;10810;48.270;9.996;2022-09-27T18:21:11;13.80;99.90
21302;DHT22;10810;48.270;9.996;2022-09-27T18:24:17;13.80;99.90
21302;DHT22;10810;48.270;9.996;2022-09-27T18:27:05;13.80;99.90
21302;DHT22;10810;48.270;9.996;2022-09-27T18:30:04;13.90;99.90
21302;DHT22;10810;48.270;9.996;2022-09-27T18:32:37;13.80;99.90
21302;DHT22;10810;48.270;9.996;2022-09-27T18:36:10;13.80;99.90
21302;DHT22;10810;48.270;9.996;2022-09-27T18:39:04;13.80;99.90
21302;DHT22;10810;48.270;9.996;2022-09-27T18:42:05;13.80;99.90
21302;DHT22;10810;48.270;9.996;2022-09-27T18:45:01;13.80;99.90
21302;DHT22;10810;48.270;9.996;2022-09-27T18:47:30;13.80;99.90
21302;DHT22;10810;48.270;9.996;2022-09-27T18:50:34;13.80;99.90
21302;DHT22;10810;48.270;9.996;2022-09-27T18:53:33;13.80;99.90
21302;DHT22;10810;48.270;9.996;2022-09-27T18:56:37;13.70;99.90
21302;DHT22;10810;48.270;9.996;2022-09-27T18:59:47;13.80;99.90
21302;DHT22;10810;48.270;9.996;2022-09-27T19:02:35;13.80;99.90
21302;DHT22;10810;48.270;9.996;2022-09-27T19:05:17;13.70;99.90
21302;DHT22;10810;48.270;9.996;2022-09-27T19:08:17;13.70;99.90
21302;DHT22;10810;48.270;9.996;2022-09-27T19:10:52;13.70;99.90
21302;DHT22;10810;48.270;9.996;2022-09-27T19:13:38;13.70;99.90
21302;DHT22;10810;48.270;9.996;2022-09-27T19:16:38;13.70;99.90
21302;DHT22;10810;48.270;9.996;2022-09-27T19:22:27;13.70;99.90
21302;DHT22;10810;48.270;9.996;2022-09-27T19:25:11;13.70;99.90
21302;DHT22;10810;48.270;9.996;2022-09-27T19:27:45;13.70;99.90
21302;DHT22;10810;48.270;9.996;2022-09-27T19:30:53;13.70;99.90
21302;DHT22;10810;48.270;9.996;2022-09-27T19:33:47;13.60;99.90
21302;DHT22;10810;48.270;9.996;2022-09-27T19:36:19;13.60;99.90
21302;DHT22;10810;48.270;9.996;2022-09-27T19:38:51;13.60;99.70
21302;DHT22;10810;48.270;9.996;2022-09-27T19:41:37;13.60;99.80
21302;DHT22;10810;48.270;9.996;2022-09-27T19:44:25;13.50;99.60
21302;DHT22;10810;48.270;9.996;2022-09-27T19:47:21;13.50;99.90
21302;DHT22;10810;48.270;9.996;2022-09-27T19:50:53;13.50;99.50
21302;DHT22;10810;48.270;9.996;2022-09-27T19:53:23;13.50;99.90
21302;DHT22;10810;48.270;9.996;2022-09-27T19:57:10;13.50;99.90
21302;DHT22;10810;48.270;9.996;2022-09-27T19:59:26;13.50;99.70
21302;DHT22;10810;48.270;9.996;2022-09-27T20:02:09;13.50;99.90
21302;DHT22;10810;48.270;9.996;2022-09-27T20:04:40;13.50;99.90
21302;DHT22;10810;48.270;9.996;2022-09-27T20:10:51;13.50;99.60
21302;DHT22;10810;48.270;9.996;2022-09-27T20:13:27;13.40;99.90
21302;DHT22;10810;48.270;9.996;2022-09-27T20:16:00;13.40;99.90
21302;DHT22;10810;48.270;9.996;2022-09-27T20:18:50;13.40;99.90
21302;DHT22;10810;48.270;9.996;2022-09-27T20:21:48;13.40;99.90
21302;DHT22;10810;48.270;9.996;2022-09-27T20:24:17;13.40;99.90
21302;DHT22;10810;48.270;9.996;2022-09-27T20:26:46;13.40;99.90
21302;DHT22;10810;48.270;9.996;2022-09-27T20:33:22;13.40;99.70
21302;DHT22;10810;48.270;9.996;2022-09-27T20:35:40;13.40;99.90
21302;DHT22;10810;48.270;9.996;2022-09-27T20:38:37;13.40;99.90
21302;DHT22;10810;48.270;9.996;2022-09-27T20:41:39;13.40;99.80
21302;DHT22;10810;48.270;9.996;2022-09-27T20:44:52;13.40;99.90
21302;DHT22;10810;48.270;9.996;2022-09-27T20:50:29;13.40;99.70
21302;DHT22;10810;48.270;9.996;2022-09-27T20:52:56;13.30;99.90
21302;DHT22;10810;48.270;9.996;2022-09-27T20:55:29;13.30;99.60
21302;DHT22;10810;48.270;9.996;2022-09-27T20:58:09;13.30;99.90
21302;DHT22;10810;48.270;9.996;2022-09-27T21:01:05;13.30;99.90
21302;DHT22;10810;48.270;9.996;2022-09-27T21:03:36;13.30;99.90
21302;DHT22;10810;48.270;9.996;2022-09-27T21:06:28;13.30;99.90
21302;DHT22;10810;48.270;9.996;2022-09-27T21:09:22;13.30;99.90
21302;DHT22;10810;48.270;9.996;2022-09-27T21:12:03;13.30;99.90
21302;DHT22;10810;48.270;9.996;2022-09-27T21:14:39;13.30;99.90
21302;DHT22;10810;48.270;9.996;2022-09-27T21:17:20;13.30;99.70
21302;DHT22;10810;48.270;9.996;2022-09-27T21:19:52;13.30;99.70
21302;DHT22;10810;48.270;9.996;2022-09-27T21:22:20;13.30;99.90
21302;DHT22;10810;48.270;9.996;2022-09-27T21:24:59;13.30;99.60
21302;DHT22;10810;48.270;9.996;2022-09-27T21:27:28;13.30;99.90
21302;DHT22;10810;48.270;9.996;2022-09-27T21:29:58;13.30;99.90
21302;DHT22;10810;48.270;9.996;2022-09-27T21:32:27;13.30;99.90
21302;DHT22;10810;48.270;9.996;2022-09-27T21:34:56;13.30;99.80
21302;DHT22;10810;48.270;9.996;2022-09-27T21:37:27;13.20;99.90
21302;DHT22;10810;48.270;9.996;2022-09-27T21:41:43;13.20;99.80
21302;DHT22;10810;48.270;9.996;2022-09-27T21:42:58;13.20;99.90
21302;DHT22;10810;48.270;9.996;2022-09-27T21:45:32;13.20;99.70
21302;DHT22;10810;48.270;9.996;2022-09-27T21:48:44;13.20;99.90
21302;DHT22;10810;48.270;9.996;2022-09-27T21:51:04;13.20;99.90
21302;DHT22;10810;48.270;9.996;2022-09-27T21:53:42;13.20;99.70
21302;DHT22;10810;48.270;9.996;2022-09-27T21:56:41;13.20;99.90
21302;DHT22;10810;48.270;9.996;2022-09-27T21:59:12;13.20;99.90
21302;DHT22;10810;48.270;9.996;2022-09-27T22:01:52;13.20;99.90
21302;DHT22;10810;48.270;9.996;2022-09-27T22:04:25;13.20;99.90
21302;DHT22;10810;48.270;9.996;2022-09-27T22:07:20;13.10;99.90
21302;DHT22;10810;48.270;9.996;2022-09-27T22:09:49;13.10;99.90
21302;DHT22;10810;48.270;9.996;2022-09-27T22:12:17;13.10;99.90
21302;DHT22;10810;48.270;9.996;2022-09-27T22:14:58;13.10;99.90
21302;DHT22;10810;48.270;9.996;2022-09-27T22:17:51;13.10;99.90
21302;DHT22;10810;48.270;9.996;2022-09-27T22:20:41;13.10;99.90
21302;DHT22;10810;48.270;9.996;2022-09-27T22:23:38;13.10;99.90
21302;DHT22;10810;48.270;9.996;2022-09-27T22:26:19;13.10;99.90
21302;DHT22;10810;48.270;9.996;2022-09-27T22:29:02;13.10;99.90
21302;DHT22;10810;48.270;9.996;2022-09-27T22:31:41;13.10;99.90
21302;DHT22;10810;48.270;9.996;2022-09-27T22:34:13;13.10;99.90